Flight Track Log - Related Links

Times and Time Zones

All times are in EDT time to prevent confusion due to time zone crossing. See the VH-CKF flight status page for this flight to view local times or setup timezone preferences in your user account.

Time Position Orientation Groundspeed Altitude Reporting Facility
EDT Latitude Longitude Course Direction KTS MPH feet Rate Location/Type
Wed 04:18:03 AM -32.0100 115.7574 North 87 100 1,500  Level Aus ATC (RADAR)
Wed 04:18:38 AM -31.9969 115.7580 North 79 91 1,500  Level Aus ATC (RADAR)
Wed 04:19:48 AM -31.9840 115.7846 60° Northeast 79 91 1,500 -46 Level Aus ATC (RADAR)
Wed 04:20:48 AM -31.9729 115.8078 61° Northeast 82 94 1,400  Descending Aus ATC (RADAR)
Wed 04:21:32 AM -31.9649 115.8248 61° Northeast 79 91 1,500 75 Climbing Aus ATC (RADAR)
Wed 04:22:08 AM -31.9596 115.8392 67° East 80 92 1,500  Level Aus ATC (RADAR)
Wed 04:22:43 AM -31.9587 115.8544 86° East 78 90 1,500  Level Aus ATC (RADAR)
Wed 04:23:17 AM -31.9501 115.8628 39° Northeast 85 98 1,500  Level Aus ATC (RADAR)
Wed 04:24:07 AM -31.9380 115.8448 308° West 81 93 1,500  Level Aus ATC (RADAR)
Wed 04:25:02 AM -31.9272 115.8236 301° West 81 93 1,500  Level Aus ATC (RADAR)
Wed 04:25:37 AM -31.9210 115.8103 299° West 77 89 1,500 -75 Level Aus ATC (RADAR)
Wed 04:26:22 AM -31.9136 115.7930 297° West 77 89 1,400  Descending Aus ATC (RADAR)
Wed 04:27:22 AM -31.9053 115.7697 293° West 77 89 1,500 57 Climbing Aus ATC (RADAR)
Wed 04:28:07 AM -31.9037 115.7527 276° West 69 79 1,500  Level Aus ATC (RADAR)
Wed 04:28:42 AM -31.9138 115.7509 189° South 63 72 1,500  Level Aus ATC (RADAR)
Wed 04:29:27 AM -31.9269 115.7503 182° South 62 71 1,500  Level Aus ATC (RADAR)
Wed 04:30:22 AM -31.9450 115.7507 179° South 70 81 -1,636 Descending Aus ATC (RADAR)
Wed 04:33:23 AM -32.0204 115.7530 360° North 1,500 429 Climbing Aus ATC (Calculated)
Wed 04:33:52 AM -32.0204 115.7530 178° South 1,500  Level Aus ATC (Calculated)
Wed 04:35:00 AM -32.0374 115.7538 178° South  Level FlightAware Approximate
Wed 04:36:00 AM -32.0525 115.7546 178° South  Level FlightAware Approximate
Wed 04:37:00 AM -32.0675 115.7553 178° South  Level FlightAware Approximate
Wed 04:37:23 AM -32.0855 115.7594 193° South 1,500  Level Aus ATC (Calculated)
Wed 04:39:00 AM -32.1091 115.7528 193° South  Level FlightAware Approximate
Wed 04:39:54 AM -32.1229 115.7918 314° West 1,500  Level Aus ATC (Calculated)
Wed 04:40:00 AM -32.0945 115.7569 13° North  Level FlightAware Approximate
Wed 04:41:00 AM -32.1117 115.7775 313° West  Level FlightAware Approximate
Wed 04:42:00 AM -32.1014 115.7645 313° West  Level FlightAware Approximate
Wed 04:42:54 AM -32.0964 115.8495 274° West 100  Level Aus ATC (Calculated)
Wed 04:43:00 AM -32.0912 115.7515 313° West  Level FlightAware Approximate
Wed 04:44:00 AM -32.0961 115.8300 271° West  Level FlightAware Approximate
Wed 04:45:00 AM -32.0966 115.8477 172° South  Level Estimated
Wed 04:46:00 AM -32.1059 115.8337 232° Southwest  Level FlightAware Approximate
Wed 04:47:00 AM -32.1151 115.8197 232° Southwest  Level FlightAware Approximate
Wed 04:48:00 AM -32.1103 115.8365 39° Northeast  Level Estimated
Wed 04:49:00 AM -32.0999 115.8236 313° West  Level FlightAware Approximate
Wed 04:50:00 AM -32.0896 115.8107 313° West  Level FlightAware Approximate
Wed 04:51:00 AM -32.0999 115.8236 133° Southeast  Level FlightAware Approximate
Wed 04:52:00 AM -32.0896 115.8107 313° West  Level FlightAware Approximate
Wed 04:53:00 AM -32.0956 115.8275 92° East  Level FlightAware Approximate
Wed 04:54:00 AM -32.0962 115.8452 92° East  Level FlightAware Approximate
Wed 04:55:00 AM -32.0968 115.8629 92° East  Level FlightAware Approximate
Wed 04:56:00 AM -32.0974 115.8807 92° East  Level FlightAware Approximate
Wed 04:57:00 AM -32.0975 115.8812 92° East  Level FlightAware Approximate
Wed 04:58:00 AM -32.0975 115.8811 92° East  Level Estimated
Wed 04:59:00 AM -32.0975 115.8811 92° East  Level Estimated
Wed 05:00:00 AM -32.0975 115.8811 92° East  Level Estimated
Wed 05:01:00 AM -32.0975 115.8811 92° East  Level Estimated
Wed 05:02:00 AM -32.0975 115.8811 92° East  Level Estimated
Wed 05:03:00 AM -32.0975 115.8811 92° East  Level Estimated
Wed 05:04:00 AM -32.0975 115.8811 92° East  Level Estimated
Wed 05:05:00 AM -32.0975 115.8811 92° East  Level Estimated
Wed 05:06:00 AM -32.0975 115.8811 92° East  Level Estimated
Wed 05:07:00 AM -32.0975 115.8811 92° East  Level Estimated
Wed 05:08:00 AM -32.0975 115.8811 92° East  Level Estimated
Wed 05:09:00 AM -32.0975 115.8811 92° East  Level Estimated
Wed 05:10:00 AM -32.0975 115.8811 92° East  Level Estimated
Wed 05:11:00 AM -32.0975 115.8811 92° East  Level Estimated
Wed 05:12:00 AM -32.0975 115.8811 92° East  Level Estimated
Wed 05:13:00 AM -32.0975 115.8811 92° East  Level Estimated
Wed 05:14:00 AM -32.0975 115.8811 92° East  Level Estimated
Wed 05:15:00 AM -32.0975 115.8811 92° East  Level Estimated
Wed 05:16:00 AM -32.0975 115.8811 92° East  Level Estimated

Login

Don't have an account? Register now (free) for customized features, flight alerts, and more!